Time;durP1;ratioP1;P1;durP2;ratioP2;P2;SDS_P1;SDS_P2;PMS_P1;PMS_P2;Temp;Humidity;BMP_temperature;BMP_pressure;BME280_temperature;BME280_humidity;BME280_pressure;Samples;Min_cycle;Max_cycle;Signal;HPM_P1;HPM_P2
2023/06/02 00:01:03;;;;;;;14.57;4.00;;;10.80;99.90;;;;;;5058438;28;20403;-71
2023/06/02 00:03:33;;;;;;;11.50;3.58;;;10.80;99.90;;;;;;5039113;28;20079;-71
2023/06/02 00:06:00;;;;;;;20.35;4.28;;;10.80;99.90;;;;;;5060120;28;20592;-70
2023/06/02 00:08:27;;;;;;;12.77;4.25;;;10.80;99.90;;;;;;5051158;28;20659;-72
2023/06/02 00:10:54;;;;;;;14.85;4.60;;;10.80;99.90;;;;;;5039167;28;20664;-71
2023/06/02 00:13:20;;;;;;;9.82;3.50;;;10.80;99.90;;;;;;5048361;28;20048;-71
2023/06/02 00:15:47;;;;;;;15.07;4.13;;;10.80;99.90;;;;;;5043792;28;20161;-71
2023/06/02 00:18:13;;;;;;;13.75;4.03;;;10.80;99.90;;;;;;5051444;28;20075;-72
2023/06/02 00:20:39;;;;;;;15.20;4.68;;;10.80;99.90;;;;;;5064319;28;20040;-73
2023/06/02 00:23:08;;;;;;;13.88;3.47;;;10.80;99.90;;;;;;5068543;28;20059;-72
2023/06/02 00:25:35;;;;;;;19.13;3.85;;;10.80;99.90;;;;;;5067051;28;20056;-72
2023/06/02 00:28:01;;;;;;;12.65;3.55;;;10.80;99.90;;;;;;5049669;28;20055;-72
2023/06/02 00:30:27;;;;;;;17.10;3.58;;;10.80;99.90;;;;;;5049561;28;20044;-72
2023/06/02 00:32:54;;;;;;;14.10;3.25;;;10.80;99.90;;;;;;5048960;28;20047;-72
2023/06/02 00:35:20;;;;;;;14.55;3.90;;;10.70;99.90;;;;;;5064699;28;20040;-72
2023/06/02 00:37:46;;;;;;;18.50;4.18;;;10.80;99.90;;;;;;5050806;28;20039;-72
2023/06/02 00:40:13;;;;;;;16.55;4.55;;;10.70;99.90;;;;;;5061724;28;20040;-72
2023/06/02 00:42:39;;;;;;;15.95;3.88;;;10.80;99.90;;;;;;5048536;28;20114;-73
2023/06/02 00:45:06;;;;;;;12.80;3.55;;;10.70;99.90;;;;;;5031313;28;20048;-72
2023/06/02 00:47:31;;;;;;;15.50;4.03;;;10.70;99.90;;;;;;5048015;28;20857;-72
2023/06/02 00:49:58;;;;;;;16.15;3.60;;;10.70;99.90;;;;;;5049010;28;20047;-72
2023/06/02 00:52:24;;;;;;;17.33;3.60;;;10.70;99.90;;;;;;5016713;28;20036;-72
2023/06/02 00:54:50;;;;;;;17.65;3.80;;;10.70;99.90;;;;;;5082431;28;20051;-72
2023/06/02 00:57:16;;;;;;;10.77;3.30;;;10.70;99.90;;;;;;5045242;28;20123;-72
2023/06/02 00:59:44;;;;;;;14.20;3.92;;;10.70;99.90;;;;;;5067913;28;20165;-72
2023/06/02 01:02:10;;;;;;;15.93;3.90;;;10.70;99.90;;;;;;5043999;28;20044;-72
2023/06/02 01:04:40;;;;;;;11.82;3.55;;;10.70;99.90;;;;;;5044871;28;20066;-72
2023/06/02 01:07:07;;;;;;;12.57;4.00;;;10.70;99.90;;;;;;5030718;28;20047;-72
2023/06/02 01:09:35;;;;;;;15.57;4.15;;;10.70;99.90;;;;;;5049496;28;20047;-72
2023/06/02 01:12:01;;;;;;;20.25;4.32;;;10.70;99.90;;;;;;5059923;28;20051;-72
2023/06/02 01:14:28;;;;;;;15.10;3.78;;;10.70;99.90;;;;;;5044629;28;20055;-74
2023/06/02 01:16:54;;;;;;;13.27;3.58;;;10.60;99.90;;;;;;5043830;28;20183;-73
2023/06/02 01:19:21;;;;;;;16.50;4.32;;;10.70;99.90;;;;;;5061418;28;20083;-73
2023/06/02 01:21:57;;;;;;;13.43;4.03;;;10.60;99.90;;;;;;5076674;28;20051;-73
2023/06/02 01:24:29;;;;;;;18.92;4.35;;;10.70;99.90;;;;;;5051388;28;20047;-74
2023/06/02 01:26:55;;;;;;;14.68;3.88;;;10.60;99.90;;;;;;5045460;28;20061;-73
2023/06/02 01:29:21;;;;;;;13.38;3.05;;;10.60;99.90;;;;;;5047403;28;20043;-73
2023/06/02 01:31:52;;;;;;;13.48;3.53;;;10.60;99.90;;;;;;5044449;28;20045;-73
2023/06/02 01:34:44;;;;;;;15.23;3.45;;;10.60;99.90;;;;;;5065550;28;20048;-74
2023/06/02 01:37:10;;;;;;;12.98;3.35;;;10.60;99.90;;;;;;5059680;28;20048;-74
2023/06/02 01:39:38;;;;;;;12.50;3.90;;;10.50;99.90;;;;;;5051236;28;20055;-74
2023/06/02 01:42:05;;;;;;;14.25;3.90;;;10.50;99.90;;;;;;5057800;28;20076;-74
2023/06/02 01:44:32;;;;;;;13.02;3.25;;;10.50;99.90;;;;;;5064105;28;20115;-71
2023/06/02 01:46:57;;;;;;;11.65;3.53;;;10.50;99.90;;;;;;5029749;28;20037;-74
2023/06/02 01:49:23;;;;;;;13.18;3.58;;;10.50;99.90;;;;;;5049247;28;20043;-75
2023/06/02 01:51:49;;;;;;;15.60;4.10;;;10.50;99.90;;;;;;5046233;28;20040;-73
2023/06/02 01:54:15;;;;;;;17.15;3.90;;;10.50;99.90;;;;;;5043155;28;20847;-73
2023/06/02 01:56:41;;;;;;;14.02;3.50;;;10.50;99.90;;;;;;5062031;28;20693;-73
2023/06/02 01:59:08;;;;;;;15.30;3.53;;;10.50;99.90;;;;;;5041953;28;20475;-73
2023/06/02 02:01:34;;;;;;;20.55;4.82;;;10.50;99.90;;;;;;5058923;28;20048;-73
2023/06/02 02:04:00;;;;;;;17.42;3.75;;;10.50;99.90;;;;;;5057105;28;20054;-73
2023/06/02 02:06:32;;;;;;;11.23;3.13;;;10.50;99.90;;;;;;5049086;28;20037;-73
2023/06/02 02:08:59;;;;;;;11.45;3.40;;;10.40;99.90;;;;;;5040834;28;20533;-73
2023/06/02 02:11:27;;;;;;;14.63;4.03;;;10.40;99.90;;;;;;5041048;28;20053;-73
2023/06/02 02:13:53;;;;;;;15.25;3.58;;;10.30;99.90;;;;;;5064016;28;20067;-73
2023/06/02 02:16:19;;;;;;;18.08;3.80;;;10.30;99.90;;;;;;5057456;28;20043;-73
2023/06/02 02:18:46;;;;;;;13.35;3.78;;;10.30;99.90;;;;;;5058420;28;20044;-73
2023/06/02 02:21:12;;;;;;;14.30;3.70;;;10.30;99.90;;;;;;5045864;28;20044;-73
2023/06/02 02:23:39;;;;;;;13.80;3.83;;;10.20;99.90;;;;;;5067025;28;20044;-73
2023/06/02 02:26:05;;;;;;;13.32;3.05;;;10.20;99.90;;;;;;5053670;28;20059;-73
2023/06/02 02:28:31;;;;;;;11.50;3.03;;;10.20;99.90;;;;;;5041958;28;20044;-73
2023/06/02 02:30:57;;;;;;;10.98;2.97;;;10.20;99.90;;;;;;5042279;28;20138;-73
2023/06/02 02:33:23;;;;;;;12.52;3.17;;;10.20;99.90;;;;;;5019002;28;20484;-75
2023/06/02 02:35:48;;;;;;;14.73;3.55;;;10.20;99.90;;;;;;5059966;28;20458;-73
2023/06/02 02:38:15;;;;;;;14.48;3.58;;;10.20;99.90;;;;;;5047726;28;20041;-73
2023/06/02 02:40:44;;;;;;;16.43;3.30;;;10.20;99.90;;;;;;5066762;28;20512;-72
2023/06/02 02:43:10;;;;;;;14.98;3.20;;;10.20;99.90;;;;;;5041930;28;20357;-73
2023/06/02 02:45:36;;;;;;;14.35;3.80;;;10.20;99.90;;;;;;5044951;28;20101;-74
2023/06/02 02:48:01;;;;;;;17.88;4.00;;;10.20;99.90;;;;;;5043474;28;20325;-73
2023/06/02 02:50:27;;;;;;;16.02;4.13;;;10.20;99.90;;;;;;5066955;28;20599;-74
2023/06/02 02:52:53;;;;;;;12.82;3.00;;;10.20;99.90;;;;;;5048008;28;20044;-73
2023/06/02 02:55:19;;;;;;;14.55;3.72;;;10.20;99.90;;;;;;5062737;28;20048;-73
2023/06/02 02:57:45;;;;;;;15.77;3.53;;;10.20;99.90;;;;;;5045992;28;20070;-73
2023/06/02 03:00:12;;;;;;;12.35;4.10;;;10.30;99.90;;;;;;5050622;28;20036;-73
2023/06/02 03:02:38;;;;;;;12.43;3.97;;;10.30;99.90;;;;;;5024764;28;20079;-73
2023/06/02 03:05:06;;;;;;;14.15;3.88;;;10.30;99.90;;;;;;5049963;28;20140;-73
2023/06/02 03:07:31;;;;;;;14.52;4.13;;;10.30;99.90;;;;;;5045961;28;20067;-74
2023/06/02 03:09:57;;;;;;;15.38;4.60;;;10.30;99.90;;;;;;5063998;28;20044;-73
2023/06/02 03:12:23;;;;;;;11.40;3.80;;;10.30;99.90;;;;;;5046753;28;20036;-73
2023/06/02 03:14:49;;;;;;;15.80;3.50;;;10.30;99.90;;;;;;5060769;28;20055;-73
2023/06/02 03:17:17;;;;;;;15.35;3.35;;;10.30;99.90;;;;;;5044241;28;20047;-73
2023/06/02 03:19:43;;;;;;;13.80;3.67;;;10.30;99.90;;;;;;5029101;28;20052;-73
2023/06/02 03:22:09;;;;;;;17.33;4.55;;;10.30;99.90;;;;;;5046655;28;20074;-73
2023/06/02 03:24:35;;;;;;;15.82;4.13;;;10.40;99.90;;;;;;5030457;28;21993;-73
2023/06/02 03:27:00;;;;;;;12.15;3.17;;;10.40;99.90;;;;;;5045857;28;20048;-73
2023/06/02 03:29:26;;;;;;;13.77;3.60;;;10.40;99.90;;;;;;5063936;28;20407;-73
2023/06/02 03:31:54;;;;;;;19.40;3.92;;;10.40;99.90;;;;;;5045319;28;20682;-73
2023/06/02 03:34:20;;;;;;;18.40;4.57;;;10.40;99.90;;;;;;5061648;28;20032;-73
2023/06/02 03:36:48;;;;;;;16.55;3.92;;;10.40;99.90;;;;;;5043735;28;20045;-73
2023/06/02 03:39:14;;;;;;;16.45;3.20;;;10.40;99.90;;;;;;5046624;28;20077;-73
2023/06/02 03:41:40;;;;;;;11.70;3.42;;;10.40;99.90;;;;;;5060831;28;20387;-73
2023/06/02 03:44:06;;;;;;;13.00;3.35;;;10.40;99.90;;;;;;5047078;28;20040;-73
2023/06/02 03:46:36;;;;;;;13.65;3.47;;;10.40;99.90;;;;;;5063473;28;20036;-73
2023/06/02 03:49:02;;;;;;;13.10;3.95;;;10.50;99.90;;;;;;5049188;28;20040;-73
2023/06/02 03:51:28;;;;;;;17.33;3.88;;;10.40;99.90;;;;;;5048015;28;20042;-74
2023/06/02 03:53:54;;;;;;;12.25;3.83;;;10.50;99.90;;;;;;5044718;28;20044;-73
2023/06/02 03:56:20;;;;;;;18.77;4.10;;;10.50;99.90;;;;;;5059825;28;20403;-73
2023/06/02 03:58:45;;;;;;;15.48;3.95;;;10.50;99.90;;;;;;5049560;28;20809;-74
2023/06/02 04:01:12;;;;;;;14.80;3.40;;;10.50;99.90;;;;;;5062192;28;20043;-73
2023/06/02 04:03:41;;;;;;;14.52;3.47;;;10.50;99.90;;;;;;5030174;28;20288;-73
2023/06/02 04:06:07;;;;;;;14.75;3.85;;;10.50;99.90;;;;;;5040563;28;20059;-73
2023/06/02 04:08:33;;;;;;;12.18;3.50;;;10.50;99.90;;;;;;5077226;28;20047;-73
2023/06/02 04:11:03;;;;;;;14.70;3.85;;;10.60;99.90;;;;;;5056310;28;20622;-73
2023/06/02 04:13:29;;;;;;;16.77;3.92;;;10.60;99.90;;;;;;5054369;28;20047;-73
2023/06/02 04:15:54;;;;;;;20.50;4.68;;;10.60;99.90;;;;;;5047173;28;20048;-73
2023/06/02 04:18:20;;;;;;;17.20;4.28;;;10.60;99.90;;;;;;5014613;28;20048;-72
2023/06/02 04:20:47;;;;;;;18.10;3.90;;;10.60;99.90;;;;;;5069357;28;20044;-73
2023/06/02 04:23:13;;;;;;;15.43;4.38;;;10.60;99.90;;;;;;5052706;28;20089;-71
2023/06/02 04:25:38;;;;;;;17.17;4.40;;;10.60;99.90;;;;;;5050725;28;20067;-73
2023/06/02 04:28:05;;;;;;;17.20;3.67;;;10.70;99.90;;;;;;5047394;28;20496;-73
2023/06/02 04:30:31;;;;;;;17.35;3.65;;;10.70;99.90;;;;;;5044686;28;20044;-73
2023/06/02 04:32:57;;;;;;;14.32;3.28;;;10.70;99.90;;;;;;5048872;28;20040;-72
2023/06/02 04:35:22;;;;;;;16.80;3.40;;;10.70;99.90;;;;;;5055565;28;20076;-73
2023/06/02 04:37:48;;;;;;;13.50;3.33;;;10.70;99.90;;;;;;5047420;28;20364;-73
2023/06/02 04:40:14;;;;;;;15.63;3.78;;;10.70;99.90;;;;;;5014305;28;20044;-73
2023/06/02 04:42:40;;;;;;;18.08;4.28;;;10.70;99.90;;;;;;5050910;28;20101;-73
2023/06/02 04:45:11;;;;;;;13.60;4.07;;;10.80;99.90;;;;;;5024404;28;20044;-73
2023/06/02 04:47:44;;;;;;;21.65;4.38;;;10.80;99.90;;;;;;5055704;28;20048;-72
2023/06/02 04:50:13;;;;;;;17.55;4.30;;;10.80;99.90;;;;;;5062489;28;20037;-73
2023/06/02 04:52:39;;;;;;;17.38;3.75;;;10.80;99.90;;;;;;5042070;28;20454;-72
2023/06/02 04:55:09;;;;;;;14.98;3.72;;;10.90;99.90;;;;;;5044154;28;20044;-73
2023/06/02 04:57:36;;;;;;;15.43;3.90;;;10.90;99.90;;;;;;5045568;28;20081;-73
2023/06/02 05:00:06;;;;;;;18.80;3.80;;;10.90;99.90;;;;;;5051330;28;20522;-73
2023/06/02 05:02:32;;;;;;;;;;;10.90;99.90;;;;;;5060579;28;20074;-73
2023/06/02 05:04:58;;;;;;;18.90;4.38;;;11.00;99.90;;;;;;5042875;28;20011;-73
2023/06/02 05:07:24;;;;;;;16.63;4.03;;;11.00;99.90;;;;;;5029316;28;20045;-73
2023/06/02 05:09:50;;;;;;;16.20;4.47;;;11.00;99.90;;;;;;5011268;28;20052;-73
2023/06/02 05:12:18;;;;;;;19.17;4.65;;;11.00;99.90;;;;;;5035293;28;20052;-73
2023/06/02 05:14:44;;;;;;;15.30;3.72;;;11.10;99.90;;;;;;5010702;28;20056;-73
2023/06/02 05:17:10;;;;;;;18.90;4.30;;;11.10;99.90;;;;;;5040972;28;20038;-72
2023/06/02 05:19:39;;;;;;;16.00;3.97;;;11.20;99.90;;;;;;5042772;28;20106;-73
2023/06/02 05:22:05;;;;;;;17.75;4.28;;;11.20;99.90;;;;;;5017034;28;20049;-72
2023/06/02 05:24:31;;;;;;;12.55;3.83;;;11.20;99.90;;;;;;5029564;28;20044;-73
2023/06/02 05:26:57;;;;;;;18.48;4.25;;;11.20;99.90;;;;;;5030940;28;20139;-73
2023/06/02 05:29:22;;;;;;;16.42;4.78;;;11.30;99.90;;;;;;5034367;28;20037;-71
2023/06/02 05:31:48;;;;;;;13.88;3.92;;;11.30;99.90;;;;;;5015432;28;20531;-71
2023/06/02 05:34:15;;;;;;;17.05;4.55;;;11.30;99.90;;;;;;5035262;28;20082;-71
2023/06/02 05:36:40;;;;;;;18.85;4.40;;;11.40;99.90;;;;;;5026555;28;20143;-71
2023/06/02 05:39:06;;;;;;;15.73;4.97;;;11.40;99.90;;;;;;5025487;28;20066;-73
2023/06/02 05:41:32;;;;;;;16.25;4.50;;;11.40;99.90;;;;;;5031912;28;20045;-72
2023/06/02 05:43:58;;;;;;;13.65;4.03;;;11.40;99.90;;;;;;5020524;28;20143;-72
2023/06/02 05:46:24;;;;;;;18.17;4.05;;;11.40;99.90;;;;;;5026785;28;20562;-72
2023/06/02 05:48:49;;;;;;;15.23;4.32;;;11.50;99.90;;;;;;5011974;28;20048;-73
2023/06/02 05:51:15;;;;;;;16.10;4.63;;;11.50;99.90;;;;;;5038416;28;20048;-73
2023/06/02 05:53:44;;;;;;;15.30;4.30;;;11.60;99.90;;;;;;5010130;28;20127;-73
2023/06/02 05:56:10;;;;;;;15.82;4.80;;;11.60;99.90;;;;;;5024487;28;20044;-72
2023/06/02 05:58:39;;;;;;;16.38;4.18;;;11.70;99.90;;;;;;5045119;28;20051;-72
2023/06/02 06:01:05;;;;;;;15.02;4.53;;;11.70;99.90;;;;;;5009143;28;20646;-73
2023/06/02 06:03:30;;;;;;;13.93;4.40;;;11.70;99.90;;;;;;5029370;28;20040;-72
2023/06/02 06:05:56;;;;;;;15.38;4.70;;;11.80;99.90;;;;;;5030708;28;20049;-73
2023/06/02 06:08:22;;;;;;;18.70;4.90;;;11.80;99.90;;;;;;5039581;28;20769;-73
2023/06/02 06:10:48;;;;;;;18.90;4.18;;;11.80;99.90;;;;;;5028247;28;20045;-73
2023/06/02 06:13:14;;;;;;;15.82;4.57;;;11.80;99.90;;;;;;5029656;28;20041;-72
2023/06/02 06:15:40;;;;;;;18.05;5.25;;;11.80;99.90;;;;;;5031773;28;20454;-73
2023/06/02 06:18:06;;;;;;;22.40;4.80;;;11.90;99.90;;;;;;5014277;28;20052;-72
2023/06/02 06:20:31;;;;;;;21.98;5.13;;;11.90;99.90;;;;;;5039019;28;20072;-73
2023/06/02 06:23:00;;;;;;;19.00;5.05;;;11.90;99.90;;;;;;5013891;28;20110;-73
2023/06/02 06:25:26;;;;;;;15.45;4.78;;;12.00;99.90;;;;;;5026705;28;20052;-73
2023/06/02 06:27:51;;;;;;;17.52;5.18;;;12.00;99.90;;;;;;4996408;28;20045;-73
2023/06/02 06:30:19;;;;;;;19.92;5.15;;;12.00;99.90;;;;;;5029912;28;20068;-73
2023/06/02 06:32:45;;;;;;;17.88;4.80;;;12.10;99.90;;;;;;5030253;28;20481;-72
2023/06/02 06:35:11;;;;;;;23.15;5.63;;;12.10;99.90;;;;;;5042895;28;20048;-72
2023/06/02 06:37:37;;;;;;;19.65;5.30;;;12.20;99.90;;;;;;5027484;28;20051;-72
2023/06/02 06:40:03;;;;;;;19.33;5.35;;;12.20;99.90;;;;;;5060784;28;20057;-72
2023/06/02 06:42:29;;;;;;;20.27;4.97;;;12.20;99.90;;;;;;5029738;28;20427;-72
2023/06/02 06:44:54;;;;;;;18.92;4.22;;;12.30;99.90;;;;;;5023034;28;20102;-72
2023/06/02 06:47:23;;;;;;;20.92;5.00;;;12.30;99.90;;;;;;5026611;28;20041;-72
2023/06/02 06:49:51;;;;;;;21.10;4.53;;;12.40;99.90;;;;;;5006623;28;20048;-72
2023/06/02 06:52:17;;;;;;;19.42;4.70;;;12.40;99.90;;;;;;5022640;28;20141;-73
2023/06/02 06:54:43;;;;;;;19.83;5.30;;;12.40;99.90;;;;;;5027686;28;20131;-72
2023/06/02 06:57:10;;;;;;;17.77;4.93;;;12.50;99.90;;;;;;5020994;28;20064;-72
2023/06/02 06:59:36;;;;;;;17.88;5.20;;;12.50;99.90;;;;;;5039542;28;20079;-72
2023/06/02 07:02:02;;;;;;;22.52;5.22;;;12.60;99.90;;;;;;5024178;28;20048;-72
2023/06/02 07:04:28;;;;;;;22.58;5.88;;;12.60;99.90;;;;;;5014102;28;20463;-74
2023/06/02 07:06:56;;;;;;;21.15;5.93;;;12.60;99.90;;;;;;5046266;28;20131;-73
2023/06/02 07:09:23;;;;;;;22.52;5.55;;;12.70;99.90;;;;;;5060197;28;20090;-73
2023/06/02 07:11:49;;;;;;;21.50;5.60;;;12.70;99.90;;;;;;5071748;28;20051;-73
2023/06/02 07:14:18;;;;;;;22.17;5.47;;;12.80;99.90;;;;;;5047063;28;20048;-74
2023/06/02 07:16:45;;;;;;;22.17;5.85;;;12.90;99.90;;;;;;5041647;28;20040;-73
2023/06/02 07:19:14;;;;;;;22.98;6.47;;;13.00;99.90;;;;;;5079510;28;20051;-72
2023/06/02 07:21:40;;;;;;;25.52;5.88;;;13.10;99.90;;;;;;5041797;28;20044;-73
2023/06/02 07:24:05;;;;;;;22.17;5.47;;;13.10;99.90;;;;;;5042566;28;20166;-72
2023/06/02 07:26:31;;;;;;;21.00;5.88;;;13.10;99.90;;;;;;5030993;28;20664;-71
2023/06/02 07:28:57;;;;;;;24.67;6.25;;;13.20;99.90;;;;;;5062841;28;20571;-71
2023/06/02 07:31:23;;;;;;;20.05;5.75;;;13.20;99.90;;;;;;5060487;28;20278;-73
2023/06/02 07:33:49;;;;;;;21.55;5.90;;;13.30;99.90;;;;;;5060423;28;20898;-71
2023/06/02 07:36:14;;;;;;;18.77;5.65;;;13.30;99.90;;;;;;5074682;28;20517;-72
2023/06/02 07:38:40;;;;;;;23.80;6.30;;;13.40;99.90;;;;;;5050296;28;20044;-72
2023/06/02 07:41:06;;;;;;;26.55;7.30;;;13.50;99.90;;;;;;5059935;28;20068;-72
2023/06/02 07:43:32;;;;;;;20.48;5.95;;;13.70;99.90;;;;;;5044417;28;20044;-72
2023/06/02 07:45:57;;;;;;;21.02;5.80;;;13.90;99.90;;;;;;5059036;28;20103;-72
2023/06/02 07:48:23;;;;;;;21.13;6.55;;;14.00;99.90;;;;;;5044729;28;20239;-71
2023/06/02 07:50:49;;;;;;;15.20;5.18;;;14.10;99.90;;;;;;5063121;28;20507;-72
2023/06/02 07:53:15;;;;;;;24.27;5.82;;;14.20;99.90;;;;;;5062045;28;20043;-72
2023/06/02 07:55:41;;;;;;;20.90;5.45;;;14.20;99.90;;;;;;5058698;28;20492;-72
2023/06/02 07:58:08;;;;;;;20.13;6.05;;;14.30;99.90;;;;;;5047609;28;20037;-72
2023/06/02 08:00:34;;;;;;;19.40;6.40;;;14.30;99.90;;;;;;5059329;28;20133;-72
2023/06/02 08:03:00;;;;;;;17.08;5.72;;;14.50;99.90;;;;;;5028804;28;20429;-72
2023/06/02 08:05:26;;;;;;;20.38;6.60;;;14.70;99.90;;;;;;5062569;28;20052;-72
2023/06/02 08:07:52;;;;;;;22.20;5.55;;;15.10;99.90;;;;;;5063993;28;20109;-72
2023/06/02 08:10:17;;;;;;;20.98;5.85;;;15.40;99.90;;;;;;5047861;28;20063;-73
2023/06/02 08:12:43;;;;;;;16.40;5.43;;;15.60;99.90;;;;;;5046878;28;20048;-72
2023/06/02 08:15:09;;;;;;;13.75;4.38;;;15.70;99.90;;;;;;5028601;28;20036;-72
2023/06/02 08:17:35;;;;;;;18.05;5.05;;;15.80;99.90;;;;;;5047037;28;20036;-72
2023/06/02 08:20:03;;;;;;;17.42;5.07;;;15.90;99.90;;;;;;5028485;28;20567;-72
2023/06/02 08:22:30;;;;;;;15.32;5.28;;;15.80;99.90;;;;;;5046161;28;21074;-72
2023/06/02 08:24:59;;;;;;;16.17;5.10;;;15.70;99.90;;;;;;5043686;28;20052;-72
2023/06/02 08:27:25;;;;;;;14.00;4.47;;;15.70;99.90;;;;;;5059043;28;20036;-73
2023/06/02 08:29:51;;;;;;;13.75;5.15;;;15.70;99.90;;;;;;5047904;28;20785;-72
2023/06/02 08:32:18;;;;;;;15.65;5.35;;;16.00;99.90;;;;;;5047588;28;20090;-72
2023/06/02 08:34:47;;;;;;;14.90;4.75;;;16.00;99.90;;;;;;5045329;28;20074;-72
2023/06/02 08:37:16;;;;;;;16.42;5.40;;;16.00;99.90;;;;;;5048927;28;20553;-72
2023/06/02 08:39:50;;;;;;;16.63;5.25;;;16.10;99.90;;;;;;5063162;28;20056;-71
2023/06/02 08:42:16;;;;;;;15.52;4.75;;;16.10;99.90;;;;;;5051323;28;20067;-72
2023/06/02 08:44:44;;;;;;;12.48;3.95;;;16.20;99.90;;;;;;5045658;28;20441;-72
2023/06/02 08:47:13;;;;;;;14.35;4.43;;;16.20;99.90;;;;;;5048170;28;20044;-72
2023/06/02 08:49:48;;;;;;;10.95;4.10;;;16.20;99.90;;;;;;5065438;28;20051;-71
2023/06/02 08:52:18;;;;;;;12.52;4.28;;;16.20;99.90;;;;;;5050849;28;20050;-72
2023/06/02 08:54:44;;;;;;;;;;;16.30;99.90;;;;;;5049721;28;20076;-71
2023/06/02 08:57:13;;;;;;;20.23;4.72;;;16.40;99.90;;;;;;5062610;28;19974;-71
2023/06/02 08:59:39;;;;;;;16.50;4.07;;;16.60;99.90;;;;;;5047313;28;20039;-71
2023/06/02 09:02:06;;;;;;;14.43;4.55;;;16.90;99.90;;;;;;5064470;28;20083;-71
2023/06/02 09:04:32;;;;;;;14.15;3.78;;;17.10;99.90;;;;;;5047141;28;20052;-71
2023/06/02 09:07:13;;;;;;;11.85;4.00;;;17.30;99.90;;;;;;5033089;28;20079;-71
2023/06/02 09:09:47;;;;;;;13.73;3.88;;;17.40;99.90;;;;;;5079301;28;20048;-71
2023/06/02 09:12:14;;;;;;;13.55;4.55;;;17.40;99.90;;;;;;5048142;28;20093;-71
2023/06/02 09:14:40;;;;;;;9.57;3.35;;;17.30;99.90;;;;;;5047799;28;20483;-72
2023/06/02 09:17:26;;;;;;;12.43;3.58;;;17.30;99.90;;;;;;5063826;28;20076;-72
2023/06/02 09:19:54;;;;;;;13.80;4.28;;;17.30;99.90;;;;;;5058270;28;20036;-72
2023/06/02 09:22:20;;;;;;;19.10;4.07;;;17.40;99.90;;;;;;5066756;28;20075;-72
2023/06/02 09:24:46;;;;;;;11.20;2.58;;;17.50;99.90;;;;;;5047461;28;20032;-71
2023/06/02 09:27:13;;;;;;;9.13;3.05;;;17.60;99.90;;;;;;5029876;28;20381;-71
2023/06/02 09:29:39;;;;;;;10.15;2.92;;;17.70;99.90;;;;;;5046340;28;20725;-71
2023/06/02 09:32:11;;;;;;;8.48;3.00;;;17.90;99.90;;;;;;5063201;28;20044;-71
2023/06/02 09:34:38;;;;;;;10.80;3.15;;;17.90;99.90;;;;;;5048483;28;20409;-71
2023/06/02 09:37:12;;;;;;;12.50;3.38;;;17.80;99.90;;;;;;5051349;28;20526;-71
2023/06/02 09:39:45;;;;;;;10.90;2.67;;;17.70;99.90;;;;;;5044993;28;20093;-71
2023/06/02 09:42:13;;;;;;;9.23;2.90;;;17.80;99.90;;;;;;5066046;28;20144;-71
2023/06/02 09:44:40;;;;;;;11.68;3.00;;;18.00;99.90;;;;;;5040952;28;20040;-71
2023/06/02 09:47:22;;;;;;;12.57;3.25;;;18.30;99.90;;;;;;5063847;28;20093;-71
2023/06/02 09:49:48;;;;;;;9.00;3.05;;;18.40;99.60;;;;;;5065788;28;20500;-71
2023/06/02 09:52:15;;;;;;;8.13;2.70;;;18.40;99.20;;;;;;5033321;28;20044;-71
2023/06/02 09:54:48;;;;;;;10.25;2.80;;;18.40;99.60;;;;;;5064913;28;20089;-71
2023/06/02 09:57:16;;;;;;;8.82;2.50;;;18.40;99.90;;;;;;5058493;28;20496;-71
2023/06/02 09:59:43;;;;;;;7.57;2.88;;;18.30;98.30;;;;;;5066090;28;20092;-71
2023/06/02 10:02:10;;;;;;;9.32;2.30;;;18.20;98.90;;;;;;5045478;28;20478;-71
2023/06/02 10:04:36;;;;;;;10.73;2.90;;;18.30;99.90;;;;;;5034882;28;20047;-71
2023/06/02 10:07:26;;;;;;;9.07;3.08;;;18.70;98.80;;;;;;5061635;28;20151;-71
2023/06/02 10:10:10;;;;;;;9.07;2.70;;;18.90;96.60;;;;;;5056492;28;20125;-71
2023/06/02 10:12:48;;;;;;;7.32;2.58;;;18.90;96.10;;;;;;5063518;28;20048;-71
2023/06/02 10:15:33;;;;;;;7.18;2.60;;;18.70;96.50;;;;;;5040168;28;20400;-71
2023/06/02 10:18:32;;;;;;;9.63;2.70;;;18.60;96.40;;;;;;5061560;28;20044;-72
2023/06/02 10:21:25;;;;;;;5.30;2.20;;;18.50;96.30;;;;;;5059768;28;20044;-71
2023/06/02 10:24:15;;;;;;;7.93;2.10;;;18.50;96.00;;;;;;5063718;28;20173;-71
2023/06/02 10:27:03;;;;;;;5.97;1.98;;;18.60;95.50;;;;;;5047610;28;20051;-71
2023/06/02 10:29:32;;;;;;;7.60;2.38;;;18.80;94.40;;;;;;5060533;28;20054;-71
2023/06/02 10:31:58;;;;;;;7.90;1.80;;;18.80;94.00;;;;;;5046731;28;20086;-71
2023/06/02 10:34:37;;;;;;;5.32;1.60;;;18.80;94.10;;;;;;5048886;28;20139;-73
2023/06/02 10:37:03;;;;;;;4.13;1.83;;;18.90;94.90;;;;;;5047891;28;20047;-73
2023/06/02 10:39:41;;;;;;;6.28;2.00;;;18.90;94.30;;;;;;5047250;28;20043;-73
2023/06/02 10:42:18;;;;;;;6.13;1.70;;;19.00;92.70;;;;;;5048815;28;20129;-72
2023/06/02 10:44:44;;;;;;;7.15;1.55;;;19.10;92.10;;;;;;5064557;28;20047;-73
2023/06/02 10:47:19;;;;;;;7.30;1.73;;;19.20;91.70;;;;;;5045420;28;20032;-72
2023/06/02 10:49:54;;;;;;;6.32;1.30;;;19.00;90.20;;;;;;5080676;28;20156;-73
2023/06/02 10:52:31;;;;;;;4.82;1.70;;;18.90;90.90;;;;;;5043538;28;20071;-73
2023/06/02 10:55:27;;;;;;;4.57;1.42;;;18.80;91.00;;;;;;5064298;28;20044;-73
2023/06/02 10:57:53;;;;;;;6.07;1.80;;;18.90;91.00;;;;;;5048723;28;20070;-72
2023/06/02 11:00:43;;;;;;;5.20;1.85;;;19.00;90.00;;;;;;5065242;28;20058;-72
2023/06/02 11:03:15;;;;;;;7.03;2.38;;;19.00;90.20;;;;;;5066323;28;20052;-72
2023/06/02 11:05:42;;;;;;;3.58;1.83;;;19.00;88.80;;;;;;5045701;28;20496;-71
2023/06/02 11:08:11;;;;;;;5.15;1.58;;;19.30;86.10;;;;;;5047584;28;20084;-71
2023/06/02 11:10:56;;;;;;;5.28;1.50;;;19.30;83.30;;;;;;5062078;28;20097;-71
2023/06/02 11:13:23;;;;;;;5.13;1.55;;;19.20;85.90;;;;;;5046444;28;20451;-71
2023/06/02 11:15:56;;;;;;;5.80;1.23;;;19.10;86.90;;;;;;5061123;28;20526;-71
2023/06/02 11:18:22;;;;;;;4.28;1.10;;;19.20;84.50;;;;;;5058511;28;20048;-71
2023/06/02 11:20:50;;;;;;;6.03;1.58;;;19.10;83.00;;;;;;5047114;28;20549;-71
2023/06/02 11:23:20;;;;;;;4.45;1.48;;;19.20;84.10;;;;;;5044231;28;20043;-71
2023/06/02 11:26:02;;;;;;;6.18;1.80;;;19.40;83.00;;;;;;5046305;28;20036;-72
2023/06/02 11:28:28;;;;;;;4.97;1.48;;;19.60;83.00;;;;;;5044682;28;20047;-71
2023/06/02 11:31:12;;;;;;;8.68;1.52;;;19.70;84.60;;;;;;5039776;28;20059;-72
2023/06/02 11:33:41;;;;;;;7.78;1.60;;;19.90;84.40;;;;;;5047660;28;20158;-72
2023/06/02 11:36:09;;;;;;;5.20;2.05;;;20.20;85.80;;;;;;5030387;28;20056;-71
2023/06/02 11:38:38;;;;;;;4.22;1.92;;;20.40;83.00;;;;;;5057811;28;20533;-71
2023/06/02 11:41:23;;;;;;;3.70;1.60;;;20.50;79.90;;;;;;5027636;28;20077;-72
2023/06/02 11:43:53;;;;;;;3.95;1.45;;;20.20;77.40;;;;;;5046396;28;20048;-72
2023/06/02 11:46:19;;;;;;;5.03;1.40;;;19.90;75.60;;;;;;5039866;28;20514;-72
2023/06/02 11:48:46;;;;;;;5.25;2.10;;;19.70;75.80;;;;;;5028547;28;20388;-71
2023/06/02 11:51:16;;;;;;;4.45;1.80;;;19.70;78.10;;;;;;5057305;28;20426;-72
2023/06/02 11:53:46;;;;;;;;;;;19.90;78.80;;;;;;5046039;28;20040;-72
2023/06/02 11:56:13;;;;;;;4.10;1.40;;;20.00;77.50;;;;;;5072234;28;20465;-71
2023/06/02 11:58:48;;;;;;;6.25;1.80;;;20.10;74.80;;;;;;5049633;28;20080;-72
2023/06/02 12:01:18;;;;;;;5.30;1.63;;;20.20;73.10;;;;;;5027045;28;20044;-71
2023/06/02 12:04:13;;;;;;;5.32;1.33;;;20.30;72.00;;;;;;5042902;28;20044;-74
2023/06/02 12:06:50;;;;;;;4.60;1.52;;;20.40;71.60;;;;;;5047480;28;20419;-71
2023/06/02 12:09:17;;;;;;;3.67;1.42;;;20.50;70.80;;;;;;5065633;28;20044;-71
2023/06/02 12:11:47;;;;;;;4.00;1.27;;;20.70;70.90;;;;;;5050850;28;20048;-73
2023/06/02 12:14:14;;;;;;;4.93;1.73;;;20.80;69.30;;;;;;5066320;28;20457;-71
2023/06/02 12:16:44;;;;;;;5.70;1.67;;;20.80;69.50;;;;;;5037137;28;20096;-71
2023/06/02 12:19:19;;;;;;;4.43;1.58;;;20.90;67.70;;;;;;5049828;28;20040;-71
2023/06/02 12:21:49;;;;;;;4.47;1.35;;;20.90;65.60;;;;;;5051838;28;20077;-71
2023/06/02 12:24:28;;;;;;;3.60;1.63;;;20.90;65.40;;;;;;5067142;28;20131;-71
2023/06/02 12:26:54;;;;;;;5.15;1.70;;;20.90;65.60;;;;;;5070051;28;20075;-72
2023/06/02 12:29:19;;;;;;;4.53;1.50;;;20.80;63.90;;;;;;5032250;28;20122;-71
2023/06/02 12:31:45;;;;;;;5.53;1.50;;;20.90;65.00;;;;;;5065601;28;20505;-72
2023/06/02 12:34:15;;;;;;;5.38;1.65;;;21.00;65.60;;;;;;5046103;28;20143;-71
2023/06/02 12:36:42;;;;;;;5.97;1.50;;;21.10;70.20;;;;;;5037252;28;20052;-71
2023/06/02 12:39:09;;;;;;;4.68;1.48;;;21.30;67.60;;;;;;5067617;28;20403;-72
2023/06/02 12:41:34;;;;;;;7.38;1.70;;;21.30;65.20;;;;;;5048641;28;20571;-72
2023/06/02 12:44:00;;;;;;;6.18;1.67;;;21.00;66.70;;;;;;5049608;28;20098;-71
2023/06/02 12:46:26;;;;;;;6.90;1.83;;;20.70;67.00;;;;;;5044280;28;20127;-72